Estación Meteorológica Peña el Pijo (Robertgarden) [ 09/23/17 05:47:38 CEST ]

Fecha Hora Presion(HPa) Temp (°C) Humedad % Rocio (°C) Viento ( m/s) Direccion Lluvia 1Hora(mm) Lluvia 24H(mm) LLuvia Total(mm)
2017-Jul-08 01:01:55 1010.600 14.0 81 10.8       7.77 1437.96
2017-Jul-08 02:01:47 1010.200 13.7 82 10.7       7.77 1437.96
2017-Jul-08 03:01:29 1010.200 12.7 83 9.9       7.77 1437.96
2017-Jul-08 04:01:27 1009.800 11.9 83 9.1       7.77 1437.96
2017-Jul-08 05:01:26 1009.600 11.2 83 8.4       7.77 1437.96
2017-Jul-08 06:01:27 1009.600 10.2 85 7.8       7.77 1437.96
2017-Jul-08 07:01:45 1009.600 9.8 85 7.4       7.77 1437.96
2017-Jul-08 08:01:44 1009.800 12.1 88 10.1       7.77 1437.96
2017-Jul-08 09:01:40 1010.000 17.4 81 14.1       7.77 1437.96
2017-Jul-08 10:01:39 1010.200 22.7 56 13.4       7.77 1437.96
2017-Jul-08 11:01:36 1010.100 25.2 45 12.4       7.77 1437.96
2017-Jul-08 12:01:51 1010.100 27.2 39 12.0       7.25 1437.96
2017-Jul-08 13:01:37 1010.000 27.6 36 11.1       7.25 1437.96
2017-Jul-08 14:01:49 1009.900 28.4 35 11.4       7.25 1437.96
2017-Jul-08 15:01:40 1009.300 29.7 32 11.2       7.25 1437.96
2017-Jul-08 16:01:51 1009.200 29.9 32 11.4       7.25 1437.96
2017-Jul-08 17:01:48 1009.000 30.4 29 10.3       7.25 1437.96
2017-Jul-08 18:02:03 1008.800 29.2 30 9.9         1437.96
2017-Jul-08 19:02:01 1008.800 27.4 34 10.0         1437.96
2017-Jul-08 20:01:52 1009.100 26.8 35 10.0 2.2 NW     1437.96
2017-Jul-08 21:01:45 1009.500 23.0 41 9.0         1437.96
2017-Jul-08 22:01:42 1010.100 21.5 45 9.0         1437.96
2017-Jul-08 23:01:42 1010.500 17.9 57 9.2         1437.96

Temperatura Máxima:30°    Temperatura Mínima:
Presión Máxima:1010.600 Hpa    Presión Mínima:1008.800 Hpa


Volver